Time;durP1;ratioP1;P1;durP2;ratioP2;P2;SDS_P1;SDS_P2;PMS_P1;PMS_P2;Temp;Humidity;BMP_temperature;BMP_pressure;BME280_temperature;BME280_humidity;BME280_pressure;Samples;Min_cycle;Max_cycle;Signal;HPM_P1;HPM_P2
2023/02/22 00:00:43;;;;;;;10.25;7.95;;;8.00;99.90;;;;;;4884969;29;20022;-77
2023/02/22 00:03:26;;;;;;;10.43;8.00;;;8.00;99.90;;;;;;4884315;29;20021;-77
2023/02/22 00:06:03;;;;;;;9.90;7.53;;;7.90;99.90;;;;;;4899370;29;20024;-78
2023/02/22 00:08:30;;;;;;;10.05;7.88;;;7.90;99.90;;;;;;4894066;29;20049;-77
2023/02/22 00:11:01;;;;;;;9.00;7.20;;;7.90;99.90;;;;;;4869757;29;20040;-77
2023/02/22 00:13:28;;;;;;;10.23;7.65;;;7.80;99.90;;;;;;4884599;29;20029;-77
2023/02/22 00:15:55;;;;;;;9.40;8.05;;;7.90;99.90;;;;;;4883671;29;20031;-78
2023/02/22 00:18:21;;;;;;;11.57;9.20;;;7.80;99.90;;;;;;4893765;29;20077;-77
2023/02/22 00:20:47;;;;;;;14.02;10.23;;;7.90;99.90;;;;;;4886445;29;20032;-77
2023/02/22 00:23:17;;;;;;;16.52;9.98;;;7.90;99.90;;;;;;4903192;29;20029;-77
2023/02/22 00:25:44;;;;;;;14.05;9.23;;;7.90;99.90;;;;;;4903023;29;20028;-76
2023/02/22 00:28:10;;;;;;;11.20;8.82;;;7.90;99.90;;;;;;4903061;29;20417;-77
2023/02/22 00:30:35;;;;;;;13.00;9.40;;;8.00;99.90;;;;;;4902916;29;20025;-77
2023/02/22 00:33:01;;;;;;;12.55;9.13;;;8.00;99.90;;;;;;4886117;29;20080;-77
2023/02/22 00:35:29;;;;;;;14.68;10.32;;;8.00;99.90;;;;;;4886133;29;20029;-77
2023/02/22 00:37:58;;;;;;;14.88;10.95;;;8.00;99.90;;;;;;4892235;29;20065;-77
2023/02/22 00:40:29;;;;;;;13.25;9.68;;;7.90;99.90;;;;;;4884139;29;20467;-77
2023/02/22 00:42:55;;;;;;;15.80;11.65;;;7.90;99.90;;;;;;4887699;29;20024;-77
2023/02/22 00:45:24;;;;;;;15.13;10.68;;;7.90;99.90;;;;;;4884352;29;20052;-77
2023/02/22 00:47:50;;;;;;;14.30;9.85;;;7.90;99.90;;;;;;4883745;29;20088;-77
2023/02/22 00:50:17;;;;;;;13.57;10.05;;;7.90;99.90;;;;;;4883802;29;20025;-77
2023/02/22 00:52:43;;;;;;;15.20;10.43;;;8.00;99.90;;;;;;4883842;29;20033;-77
2023/02/22 00:55:14;;;;;;;13.43;9.90;;;8.00;99.90;;;;;;4883734;29;20040;-76
2023/02/22 00:57:39;;;;;;;14.40;9.98;;;8.10;99.90;;;;;;4883923;29;20033;-77
2023/02/22 01:00:11;;;;;;;13.38;9.65;;;8.20;99.90;;;;;;4884008;29;20029;-77
2023/02/22 01:02:41;;;;;;;14.10;9.27;;;8.20;99.90;;;;;;4866616;29;20036;-77
2023/02/22 01:05:11;;;;;;;13.40;8.75;;;8.20;99.90;;;;;;4889348;29;20035;-77
2023/02/22 01:07:38;;;;;;;16.52;10.27;;;8.30;99.90;;;;;;4902282;29;20490;-77
2023/02/22 01:10:05;;;;;;;13.98;9.40;;;8.30;99.90;;;;;;4883856;29;20109;-76
2023/02/22 01:12:30;;;;;;;13.13;8.90;;;8.30;99.90;;;;;;4886248;29;20069;-76
2023/02/22 01:14:57;;;;;;;12.63;9.60;;;8.30;99.90;;;;;;4883603;29;20029;-76
2023/02/22 01:17:24;;;;;;;12.88;9.65;;;8.30;99.90;;;;;;4868484;29;20124;-76
2023/02/22 01:19:50;;;;;;;14.27;9.80;;;8.40;99.90;;;;;;4885706;29;20056;-76
2023/02/22 01:22:17;;;;;;;14.73;10.30;;;8.30;99.90;;;;;;4902171;29;20108;-76
2023/02/22 01:24:43;;;;;;;14.13;9.70;;;8.30;99.90;;;;;;4902311;29;20029;-77
2023/02/22 01:27:09;;;;;;;15.75;10.38;;;8.30;99.90;;;;;;4901898;29;20043;-76
2023/02/22 01:29:35;;;;;;;13.88;9.32;;;8.40;99.90;;;;;;4902256;29;20394;-76
2023/02/22 01:32:01;;;;;;;14.57;10.07;;;8.40;99.90;;;;;;4901689;29;20169;-77
2023/02/22 01:34:29;;;;;;;15.63;9.52;;;8.40;99.90;;;;;;4902092;29;20028;-76
2023/02/22 01:36:55;;;;;;;15.13;10.45;;;8.50;99.90;;;;;;4899580;29;20028;-76
2023/02/22 01:39:21;;;;;;;12.40;9.05;;;8.50;99.90;;;;;;4883361;29;20037;-77
2023/02/22 01:41:46;;;;;;;13.75;9.40;;;8.50;99.90;;;;;;4883344;29;20039;-77
2023/02/22 01:44:18;;;;;;;14.02;9.20;;;8.50;99.90;;;;;;4888660;29;20587;-76
2023/02/22 01:46:44;;;;;;;15.65;10.35;;;8.50;99.90;;;;;;4866557;29;20509;-77
2023/02/22 01:49:11;;;;;;;13.40;10.30;;;8.50;99.90;;;;;;4883401;29;20029;-77
2023/02/22 01:51:40;;;;;;;14.90;10.02;;;8.50;99.90;;;;;;4883305;29;20025;-77
2023/02/22 01:54:12;;;;;;;17.20;10.32;;;8.50;99.90;;;;;;4866794;29;20021;-77
2023/02/22 01:56:39;;;;;;;14.45;8.85;;;8.50;99.90;;;;;;4883139;29;20401;-77
2023/02/22 01:59:09;;;;;;;12.95;9.02;;;8.50;99.90;;;;;;4883289;29;20025;-78
2023/02/22 02:01:37;;;;;;;14.40;9.85;;;8.60;99.90;;;;;;4882989;29;20077;-77
2023/02/22 02:04:08;;;;;;;16.90;11.70;;;8.60;99.90;;;;;;4866702;29;20033;-77
2023/02/22 02:06:35;;;;;;;15.82;10.82;;;8.40;99.90;;;;;;4902828;29;20033;-76
2023/02/22 02:09:30;;;;;;;14.63;10.50;;;8.40;99.90;;;;;;4879371;29;20478;-76
2023/02/22 02:12:01;;;;;;;14.02;9.32;;;8.40;99.90;;;;;;4885979;29;20025;-76
2023/02/22 02:14:30;;;;;;;14.52;10.50;;;8.30;99.90;;;;;;4882837;29;20029;-76
2023/02/22 02:17:00;;;;;;;15.85;11.50;;;8.30;99.90;;;;;;4882705;29;20029;-76
2023/02/22 02:19:37;;;;;;;18.05;11.45;;;8.30;99.90;;;;;;4900722;29;20028;-76
2023/02/22 02:22:37;;;;;;;17.23;9.98;;;8.20;99.90;;;;;;4901721;29;20472;-76
2023/02/22 02:25:28;;;;;;;16.33;10.90;;;8.20;99.90;;;;;;4901673;29;20049;-76
2023/02/22 02:28:18;;;;;;;14.45;9.48;;;8.20;99.90;;;;;;4901764;29;20171;-76
2023/02/22 02:31:06;;;;;;;13.05;9.68;;;8.20;99.90;;;;;;4901500;29;20039;-75
2023/02/22 02:33:42;;;;;;;13.35;9.65;;;8.20;99.90;;;;;;4901126;29;20506;-75
2023/02/22 02:36:19;;;;;;;13.35;9.63;;;8.20;99.90;;;;;;4901571;29;20025;-75
2023/02/22 02:38:53;;;;;;;15.18;10.38;;;8.20;99.90;;;;;;4886297;29;20486;-75
2023/02/22 02:41:28;;;;;;;14.02;9.32;;;8.20;99.90;;;;;;4886344;29;20025;-75
2023/02/22 02:44:00;;;;;;;15.18;9.55;;;8.20;99.90;;;;;;4891101;29;20108;-75
2023/02/22 02:46:34;;;;;;;14.98;9.25;;;8.20;99.90;;;;;;4886191;29;20029;-76
2023/02/22 02:49:09;;;;;;;12.80;9.00;;;8.20;99.90;;;;;;4869763;29;20056;-76
2023/02/22 02:51:43;;;;;;;12.68;8.75;;;8.20;99.90;;;;;;4886073;29;20036;-76
2023/02/22 02:54:11;;;;;;;15.13;10.02;;;8.30;99.90;;;;;;4886184;29;20475;-75
2023/02/22 02:56:37;;;;;;;13.07;8.85;;;8.30;99.90;;;;;;4885891;29;20036;-77
2023/02/22 02:59:21;;;;;;;12.95;8.20;;;8.30;99.90;;;;;;4886142;29;20033;-76
2023/02/22 03:01:46;;;;;;;;;;;8.30;99.90;;;;;;4869313;29;20033;-77
2023/02/22 03:04:36;;;;;;;9.55;6.82;;;8.40;99.90;;;;;;4886096;29;20733;-76
2023/02/22 03:07:09;;;;;;;10.43;6.80;;;8.30;99.90;;;;;;4895230;29;20043;-76
2023/02/22 03:09:51;;;;;;;;;;;8.40;99.90;;;;;;4887751;29;20052;-76
2023/02/22 03:12:17;;;;;;;8.20;5.07;;;8.50;99.90;;;;;;4888017;29;19974;-76
2023/02/22 03:14:43;;;;;;;8.77;5.95;;;8.40;99.90;;;;;;4868765;29;20116;-76
2023/02/22 03:17:40;;;;;;;10.25;6.82;;;8.50;99.90;;;;;;4887960;29;20021;-76
2023/02/22 03:20:09;;;;;;;10.32;6.60;;;8.50;99.90;;;;;;4887856;29;20033;-76
2023/02/22 03:23:05;;;;;;;11.82;8.07;;;8.50;99.90;;;;;;4904209;29;20036;-76
2023/02/22 03:25:50;;;;;;;12.45;8.77;;;8.50;99.90;;;;;;4886162;29;20048;-75
2023/02/22 03:28:18;;;;;;;12.88;7.97;;;8.50;99.90;;;;;;4887355;29;20060;-75
2023/02/22 03:30:53;;;;;;;10.25;6.80;;;8.50;99.90;;;;;;4904229;29;20043;-75
2023/02/22 03:33:44;;;;;;;12.73;8.90;;;8.60;99.90;;;;;;4903799;29;20035;-76
2023/02/22 03:36:13;;;;;;;12.30;8.45;;;8.60;99.90;;;;;;4891207;29;20024;-75
2023/02/22 03:38:41;;;;;;;13.15;8.55;;;8.60;99.90;;;;;;4887003;29;20021;-76
2023/02/22 03:41:09;;;;;;;14.07;9.13;;;8.60;99.90;;;;;;4885198;29;20037;-76
2023/02/22 03:43:49;;;;;;;14.90;9.63;;;8.60;99.90;;;;;;4888830;29;20025;-76
2023/02/22 03:46:18;;;;;;;14.88;9.35;;;8.50;99.90;;;;;;4885224;29;20052;-76
2023/02/22 03:49:11;;;;;;;13.90;8.90;;;8.60;99.90;;;;;;4884655;29;20021;-76
2023/02/22 03:51:38;;;;;;;13.32;7.88;;;8.60;99.90;;;;;;4884682;29;20033;-76
2023/02/22 03:54:05;;;;;;;11.05;7.88;;;8.60;99.90;;;;;;4885010;29;20029;-76
2023/02/22 03:56:38;;;;;;;13.45;8.70;;;8.60;99.90;;;;;;4884876;29;20502;-77
2023/02/22 03:59:06;;;;;;;15.45;8.75;;;8.60;99.90;;;;;;4884997;29;20021;-76
2023/02/22 04:01:32;;;;;;;12.75;8.50;;;8.60;99.90;;;;;;4867723;29;20029;-76
2023/02/22 04:03:59;;;;;;;14.25;9.02;;;8.60;99.90;;;;;;4884822;29;20065;-76
2023/02/22 04:06:25;;;;;;;13.43;9.15;;;8.60;99.90;;;;;;4883640;29;20032;-77
2023/02/22 04:08:51;;;;;;;13.52;8.32;;;8.70;99.90;;;;;;4891523;29;20025;-76
2023/02/22 04:11:16;;;;;;;14.20;7.60;;;8.70;99.90;;;;;;4886736;29;20040;-76
2023/02/22 04:13:42;;;;;;;11.07;7.22;;;8.70;99.90;;;;;;4867879;29;20061;-76
2023/02/22 04:16:08;;;;;;;12.90;8.38;;;8.80;99.90;;;;;;4884446;29;20550;-76
2023/02/22 04:18:33;;;;;;;11.73;7.90;;;8.80;99.90;;;;;;4877039;29;20675;-76
2023/02/22 04:20:59;;;;;;;10.27;6.93;;;8.80;99.90;;;;;;4886080;29;20084;-76
2023/02/22 04:23:25;;;;;;;11.13;7.38;;;8.80;99.90;;;;;;4903321;29;20056;-76
2023/02/22 04:25:51;;;;;;;10.88;7.53;;;8.80;99.90;;;;;;4885333;29;20044;-76
2023/02/22 04:28:17;;;;;;;12.25;8.57;;;8.80;99.90;;;;;;4903409;29;20028;-76
2023/02/22 04:30:44;;;;;;;10.98;7.18;;;8.80;99.90;;;;;;4886380;29;20036;-76
2023/02/22 04:33:10;;;;;;;11.25;8.23;;;8.80;99.90;;;;;;4902789;29;20024;-76
2023/02/22 04:35:36;;;;;;;10.73;7.07;;;8.80;99.90;;;;;;4903015;29;20080;-76
2023/02/22 04:38:03;;;;;;;11.13;7.88;;;8.90;99.90;;;;;;4891761;29;20081;-76
2023/02/22 04:40:29;;;;;;;10.43;7.30;;;8.90;99.90;;;;;;4867410;29;20073;-76
2023/02/22 04:42:55;;;;;;;11.82;7.80;;;8.90;99.90;;;;;;4887843;29;20027;-76
2023/02/22 04:45:21;;;;;;;10.60;7.13;;;8.90;99.90;;;;;;4884821;29;20033;-76
2023/02/22 04:47:46;;;;;;;12.15;7.88;;;8.90;99.90;;;;;;4883955;29;20084;-76
2023/02/22 04:50:13;;;;;;;10.98;7.25;;;8.90;99.90;;;;;;4867441;29;20447;-76
2023/02/22 04:52:39;;;;;;;12.15;8.23;;;8.90;99.90;;;;;;4884030;29;20103;-76
2023/02/22 04:55:05;;;;;;;11.98;7.88;;;9.00;99.90;;;;;;4883702;29;20033;-76
2023/02/22 04:57:31;;;;;;;10.45;7.70;;;8.90;99.90;;;;;;4884123;29;20026;-77
2023/02/22 04:59:56;;;;;;;11.45;7.57;;;8.90;99.90;;;;;;4883779;29;20051;-76
2023/02/22 05:02:22;;;;;;;10.48;6.85;;;9.00;99.90;;;;;;4883338;29;20048;-76
2023/02/22 05:04:48;;;;;;;11.95;7.70;;;9.00;99.90;;;;;;4883633;29;20405;-76
2023/02/22 05:07:14;;;;;;;12.88;8.27;;;9.00;99.90;;;;;;4881218;29;20100;-75
2023/02/22 05:09:39;;;;;;;11.75;7.68;;;9.00;99.90;;;;;;4869482;29;20029;-75
2023/02/22 05:12:05;;;;;;;11.98;7.60;;;8.90;99.90;;;;;;4869573;29;20091;-76
2023/02/22 05:14:31;;;;;;;10.98;7.43;;;8.90;99.90;;;;;;4883423;29;20033;-76
2023/02/22 05:16:57;;;;;;;11.68;7.65;;;8.90;99.90;;;;;;4866965;29;20062;-75
2023/02/22 05:19:23;;;;;;;13.65;8.02;;;8.90;99.90;;;;;;4900937;29;20072;-76
2023/02/22 05:21:49;;;;;;;12.70;8.18;;;8.90;99.90;;;;;;4902388;29;20021;-76
2023/02/22 05:24:15;;;;;;;11.73;7.22;;;9.00;99.90;;;;;;4902071;29;20028;-76
2023/02/22 05:26:43;;;;;;;10.95;7.47;;;9.00;99.90;;;;;;4902404;29;20057;-75
2023/02/22 05:29:08;;;;;;;11.35;7.70;;;9.00;99.90;;;;;;4902070;29;20375;-76
2023/02/22 05:31:34;;;;;;;11.82;8.07;;;9.00;99.90;;;;;;4901850;29;20080;-76
2023/02/22 05:33:59;;;;;;;12.75;8.60;;;9.00;99.90;;;;;;4901953;29;20046;-75
2023/02/22 05:36:26;;;;;;;13.95;8.20;;;9.00;99.90;;;;;;4901917;29;20044;-75
2023/02/22 05:38:52;;;;;;;16.42;9.13;;;9.00;99.90;;;;;;4868549;29;20060;-75
2023/02/22 05:41:18;;;;;;;13.55;9.07;;;9.00;99.90;;;;;;4883407;29;20021;-75
2023/02/22 05:43:44;;;;;;;12.30;8.45;;;9.00;99.90;;;;;;4875687;29;20032;-75
2023/02/22 05:46:10;;;;;;;12.63;8.43;;;9.00;99.90;;;;;;4889799;29;20104;-75
2023/02/22 05:48:35;;;;;;;12.23;8.18;;;9.00;99.90;;;;;;4882763;29;20071;-75
2023/02/22 05:51:02;;;;;;;12.77;7.90;;;9.00;99.90;;;;;;4883281;29;20033;-76
2023/02/22 05:53:28;;;;;;;13.68;9.32;;;9.00;99.90;;;;;;4866405;29;20032;-75
2023/02/22 05:55:54;;;;;;;14.13;8.07;;;9.00;99.90;;;;;;4883430;29;20040;-75
2023/02/22 05:58:19;;;;;;;13.05;8.57;;;9.00;99.90;;;;;;4883091;29;20053;-75
2023/02/22 06:00:45;;;;;;;15.73;10.05;;;9.00;99.90;;;;;;4883230;29;20042;-75
2023/02/22 06:03:11;;;;;;;13.35;8.85;;;9.00;99.90;;;;;;4866344;29;20455;-75
2023/02/22 06:05:37;;;;;;;13.48;9.13;;;9.00;99.90;;;;;;4883226;29;20033;-75
2023/02/22 06:08:04;;;;;;;14.10;9.13;;;9.00;99.90;;;;;;4893312;29;20509;-75
2023/02/22 06:10:30;;;;;;;13.68;8.70;;;9.00;99.90;;;;;;4884563;29;20030;-75
2023/02/22 06:12:57;;;;;;;12.63;7.85;;;9.00;99.90;;;;;;4885339;29;20466;-75
2023/02/22 06:15:24;;;;;;;12.68;8.35;;;9.00;99.90;;;;;;4886818;29;20040;-75
2023/02/22 06:17:50;;;;;;;13.73;8.82;;;9.10;99.90;;;;;;4891826;29;20620;-75
2023/02/22 06:20:18;;;;;;;16.10;9.18;;;9.10;99.90;;;;;;4905472;29;20021;-75
2023/02/22 06:22:47;;;;;;;12.13;8.10;;;9.10;99.90;;;;;;4888528;29;20021;-75
2023/02/22 06:25:15;;;;;;;15.77;9.55;;;9.10;99.90;;;;;;4905486;29;20032;-75
2023/02/22 06:27:40;;;;;;;15.00;9.50;;;9.10;99.90;;;;;;4905425;29;20064;-75
2023/02/22 06:30:07;;;;;;;16.27;9.20;;;9.10;99.90;;;;;;4905545;29;20033;-75
2023/02/22 06:32:33;;;;;;;14.57;8.88;;;9.10;99.90;;;;;;4905547;29;20037;-75
2023/02/22 06:34:58;;;;;;;16.45;9.45;;;9.10;99.90;;;;;;4905242;29;20390;-75
2023/02/22 06:37:24;;;;;;;15.52;9.65;;;9.10;99.90;;;;;;4898934;29;20028;-76
2023/02/22 06:39:49;;;;;;;13.80;8.82;;;9.10;99.90;;;;;;4886248;29;20052;-75
2023/02/22 06:42:15;;;;;;;12.98;8.32;;;9.10;99.90;;;;;;4886438;29;20822;-76
2023/02/22 06:44:41;;;;;;;12.93;8.85;;;9.10;99.90;;;;;;4890755;29;20061;-76
2023/02/22 06:47:06;;;;;;;14.07;9.48;;;9.10;99.90;;;;;;4885681;29;20553;-75
2023/02/22 06:49:32;;;;;;;13.57;9.23;;;9.10;99.90;;;;;;4886249;29;20110;-76
2023/02/22 06:51:58;;;;;;;12.90;7.95;;;9.10;99.90;;;;;;4886198;29;20398;-75
2023/02/22 06:54:23;;;;;;;14.45;9.05;;;9.20;99.90;;;;;;4886055;29;20406;-75
2023/02/22 06:56:49;;;;;;;13.70;9.27;;;9.10;99.90;;;;;;4886086;29;20376;-75
2023/02/22 06:59:15;;;;;;;16.15;9.80;;;9.10;99.90;;;;;;4886178;29;20085;-75
2023/02/22 07:01:42;;;;;;;16.25;9.75;;;9.00;99.90;;;;;;4885618;29;20025;-76
2023/02/22 07:04:08;;;;;;;13.95;9.23;;;9.10;99.90;;;;;;4902326;29;20031;-76
2023/02/22 07:06:33;;;;;;;14.30;8.38;;;9.10;99.90;;;;;;4899253;29;20035;-74
2023/02/22 07:09:00;;;;;;;13.60;7.80;;;9.10;99.90;;;;;;4891946;29;20053;-75
2023/02/22 07:11:25;;;;;;;15.18;8.32;;;9.10;99.90;;;;;;4887983;29;20065;-76
2023/02/22 07:13:51;;;;;;;13.93;7.97;;;9.10;99.90;;;;;;4869035;29;20398;-77
2023/02/22 07:16:17;;;;;;;12.75;8.05;;;9.10;99.90;;;;;;4885439;29;20136;-78
2023/02/22 07:18:43;;;;;;;14.98;8.60;;;9.20;99.90;;;;;;4897199;29;20029;-78
2023/02/22 07:21:09;;;;;;;11.80;8.23;;;9.10;99.90;;;;;;4904056;29;20035;-78
2023/02/22 07:23:35;;;;;;;14.07;8.10;;;9.10;99.90;;;;;;4892865;29;20028;-79
2023/02/22 07:26:01;;;;;;;14.13;8.63;;;9.10;99.90;;;;;;4904601;29;20035;-78
2023/02/22 07:28:27;;;;;;;13.98;8.23;;;9.20;99.90;;;;;;4919528;29;20036;-78
2023/02/22 07:30:53;;;;;;;13.40;8.90;;;9.20;99.90;;;;;;4868718;29;20109;-78
2023/02/22 07:33:18;;;;;;;13.52;8.07;;;9.20;99.90;;;;;;4872594;29;20129;-78
2023/02/22 07:35:46;;;;;;;13.85;8.43;;;9.20;99.90;;;;;;4914590;29;20043;-79
2023/02/22 07:38:14;;;;;;;12.25;7.88;;;9.20;99.90;;;;;;4917849;29;20111;-78
2023/02/22 07:40:40;;;;;;;12.30;8.23;;;9.20;99.90;;;;;;4904560;29;20045;-78
2023/02/22 07:43:20;;;;;;;12.05;8.63;;;9.20;99.90;;;;;;4917099;29;20020;-77
2023/02/22 07:45:47;;;;;;;12.13;7.35;;;9.20;99.90;;;;;;4906235;29;20048;-77
2023/02/22 07:48:13;;;;;;;11.90;7.22;;;9.20;99.90;;;;;;4873736;29;20115;-78
2023/02/22 07:50:40;;;;;;;12.60;7.32;;;9.20;99.90;;;;;;4885027;29;20490;-78
2023/02/22 07:53:10;;;;;;;12.60;7.80;;;9.30;99.90;;;;;;4896800;29;20418;-76
2023/02/22 07:55:36;;;;;;;12.23;8.35;;;9.30;99.90;;;;;;4903513;29;20029;-76
2023/02/22 07:58:05;;;;;;;11.48;7.18;;;9.30;99.90;;;;;;4903403;29;20381;-77
2023/02/22 08:00:33;;;;;;;13.15;8.18;;;9.30;99.90;;;;;;4903348;29;20033;-77
2023/02/22 08:03:01;;;;;;;10.85;6.95;;;9.40;99.90;;;;;;4903108;29;20024;-77
2023/02/22 08:05:28;;;;;;;11.68;7.00;;;9.40;99.90;;;;;;4903577;29;20397;-77
2023/02/22 08:07:54;;;;;;;9.55;6.72;;;9.50;99.90;;;;;;4899856;29;20036;-77
2023/02/22 08:10:22;;;;;;;12.00;7.63;;;9.50;99.90;;;;;;4884969;29;20037;-77
2023/02/22 08:12:48;;;;;;;11.57;7.68;;;9.50;99.90;;;;;;4870511;29;20371;-77
2023/02/22 08:15:21;;;;;;;12.77;8.32;;;9.50;99.90;;;;;;4884645;29;20037;-77
2023/02/22 08:17:46;;;;;;;11.80;7.82;;;9.50;99.90;;;;;;4889229;29;20020;-76
2023/02/22 08:20:12;;;;;;;13.57;9.23;;;9.50;99.90;;;;;;4903186;29;20521;-77
2023/02/22 08:22:39;;;;;;;11.75;7.88;;;9.50;99.90;;;;;;4903140;29;20108;-76
2023/02/22 08:25:05;;;;;;;14.23;7.85;;;9.60;99.90;;;;;;4903176;29;20481;-76
2023/02/22 08:27:32;;;;;;;12.02;8.05;;;9.60;99.90;;;;;;4903018;29;20047;-78
2023/02/22 08:29:58;;;;;;;15.18;8.00;;;9.60;99.90;;;;;;4903157;29;20044;-76
2023/02/22 08:32:24;;;;;;;10.40;7.57;;;9.60;99.90;;;;;;4902649;29;20032;-76
2023/02/22 08:34:50;;;;;;;15.25;9.18;;;9.60;99.90;;;;;;4903032;29;20036;-76
2023/02/22 08:37:17;;;;;;;11.27;8.18;;;9.60;99.90;;;;;;4897010;29;20065;-77
2023/02/22 08:39:43;;;;;;;13.93;8.93;;;9.60;99.90;;;;;;4884147;29;20561;-76
2023/02/22 08:42:09;;;;;;;13.55;7.97;;;9.60;99.90;;;;;;4884101;29;20029;-77
2023/02/22 08:44:37;;;;;;;12.68;8.85;;;9.60;99.90;;;;;;4888989;29;20053;-77
2023/02/22 08:47:03;;;;;;;15.00;8.68;;;9.70;99.90;;;;;;4867444;29;20032;-76
2023/02/22 08:49:28;;;;;;;13.13;8.10;;;9.70;99.90;;;;;;4884181;29;20089;-76
2023/02/22 08:51:54;;;;;;;14.18;9.13;;;9.70;99.90;;;;;;4883764;29;20041;-76
2023/02/22 08:54:21;;;;;;;12.88;8.70;;;9.70;99.90;;;;;;4867510;29;20041;-77
2023/02/22 08:56:47;;;;;;;12.20;8.63;;;9.80;99.90;;;;;;4883809;29;20021;-76
2023/02/22 08:59:14;;;;;;;12.38;8.65;;;9.80;99.90;;;;;;4867789;29;20411;-76
2023/02/22 09:01:39;;;;;;;13.48;9.10;;;9.90;99.90;;;;;;4883355;29;20409;-76
2023/02/22 09:04:05;;;;;;;13.73;8.63;;;9.90;99.90;;;;;;4883874;29;20036;-76
2023/02/22 09:06:31;;;;;;;13.75;9.13;;;9.80;99.90;;;;;;4870121;29;20469;-76
2023/02/22 09:08:57;;;;;;;15.05;8.77;;;9.80;99.90;;;;;;4890582;29;20132;-76
2023/02/22 09:11:22;;;;;;;12.75;8.05;;;9.90;99.90;;;;;;4885968;29;20033;-77
2023/02/22 09:13:48;;;;;;;14.25;8.38;;;9.90;99.90;;;;;;4883503;29;20033;-76
2023/02/22 09:16:14;;;;;;;12.50;8.05;;;10.00;99.90;;;;;;4883236;29;20583;-77
2023/02/22 09:18:40;;;;;;;11.40;7.78;;;10.00;99.90;;;;;;4895650;29;20405;-76
2023/02/22 09:21:06;;;;;;;14.95;8.73;;;10.00;99.90;;;;;;4885208;29;20458;-76
2023/02/22 09:23:31;;;;;;;13.95;8.55;;;10.00;99.90;;;;;;4902327;29;20107;-76
2023/02/22 09:25:59;;;;;;;11.52;7.97;;;10.00;99.90;;;;;;4902105;29;20458;-77
2023/02/22 09:28:27;;;;;;;11.98;7.57;;;10.00;99.90;;;;;;4885368;29;20036;-76
2023/02/22 09:30:53;;;;;;;11.00;7.25;;;9.90;99.90;;;;;;4902166;29;20485;-77
2023/02/22 09:33:20;;;;;;;14.85;9.32;;;9.90;99.90;;;;;;4901915;29;20119;-76
2023/02/22 09:35:48;;;;;;;13.15;8.07;;;9.90;99.90;;;;;;4901992;29;20446;-76
2023/02/22 09:38:17;;;;;;;14.15;8.45;;;9.80;99.90;;;;;;4878554;29;20057;-76
2023/02/22 09:40:50;;;;;;;13.30;7.60;;;9.80;99.90;;;;;;4866312;29;20422;-77
2023/02/22 09:43:46;;;;;;;13.35;7.80;;;9.80;99.90;;;;;;4888149;29;20040;-76
2023/02/22 09:46:33;;;;;;;12.68;7.60;;;9.80;99.90;;;;;;4883347;29;20049;-77
2023/02/22 09:49:04;;;;;;;13.15;8.25;;;9.80;99.90;;;;;;4895726;29;20021;-76
2023/02/22 09:51:51;;;;;;;11.55;7.97;;;9.70;99.90;;;;;;4905910;29;20033;-76
2023/02/22 09:54:25;;;;;;;13.30;8.02;;;9.70;99.90;;;;;;4906319;29;20120;-77
2023/02/22 09:56:57;;;;;;;11.02;7.40;;;9.70;99.90;;;;;;4905985;29;20398;-77
2023/02/22 09:59:28;;;;;;;11.05;7.30;;;9.80;99.90;;;;;;4905777;29;20111;-77
2023/02/22 10:02:20;;;;;;;11.10;7.32;;;9.80;99.90;;;;;;4905535;29;20547;-77
2023/02/22 10:05:14;;;;;;;11.45;7.40;;;9.80;99.90;;;;;;4905758;29;20120;-76
2023/02/22 10:07:50;;;;;;;11.68;7.95;;;9.70;99.90;;;;;;4905439;29;20028;-76
2023/02/22 10:10:19;;;;;;;11.93;7.20;;;9.80;99.90;;;;;;4905850;29;20449;-77
2023/02/22 10:12:52;;;;;;;11.75;7.20;;;9.80;99.90;;;;;;4889455;29;20025;-77
2023/02/22 10:15:33;;;;;;;10.18;7.00;;;9.80;99.90;;;;;;4886781;29;20478;-77
2023/02/22 10:18:19;;;;;;;12.20;6.75;;;9.80;99.90;;;;;;4893202;29;20482;-76
2023/02/22 10:20:56;;;;;;;9.55;6.15;;;9.80;99.90;;;;;;4889848;29;20120;-77
2023/02/22 10:23:35;;;;;;;8.40;5.32;;;9.80;99.90;;;;;;4886883;29;20375;-77
2023/02/22 10:26:25;;;;;;;8.95;5.70;;;9.80;99.90;;;;;;4875827;29;20048;-78
2023/02/22 10:28:59;;;;;;;8.70;5.43;;;9.90;99.90;;;;;;4895888;29;20414;-78
2023/02/22 10:31:32;;;;;;;8.40;5.72;;;9.90;99.90;;;;;;4904969;29;20032;-77
2023/02/22 10:34:02;;;;;;;8.73;5.80;;;10.00;99.90;;;;;;4905069;29;20541;-77
2023/02/22 10:36:28;;;;;;;8.93;5.63;;;10.00;99.90;;;;;;4905116;29;20016;-77
2023/02/22 10:39:01;;;;;;;9.07;5.90;;;10.00;99.90;;;;;;4886955;29;20025;-77
2023/02/22 10:41:39;;;;;;;9.35;6.00;;;10.00;99.90;;;;;;4886414;29;20036;-77
2023/02/22 10:44:04;;;;;;;8.63;5.57;;;9.90;99.90;;;;;;4882179;29;20075;-77
2023/02/22 10:46:33;;;;;;;8.63;5.82;;;9.90;99.90;;;;;;4890653;29;20029;-77
2023/02/22 10:49:06;;;;;;;7.97;5.03;;;9.90;99.90;;;;;;4869424;29;20395;-77
2023/02/22 10:51:32;;;;;;;7.63;4.90;;;9.90;99.90;;;;;;4885972;29;20029;-77
2023/02/22 10:54:11;;;;;;;6.82;4.50;;;9.90;99.90;;;;;;4886069;29;20164;-76
2023/02/22 10:56:55;;;;;;;6.47;3.90;;;9.80;99.90;;;;;;4886061;29;20482;-76
2023/02/22 10:59:36;;;;;;;6.00;3.78;;;9.80;99.90;;;;;;4897809;29;20016;-76
2023/02/22 11:02:19;;;;;;;5.88;3.80;;;9.80;99.90;;;;;;4885592;29;20041;-77
2023/02/22 11:04:47;;;;;;;7.25;4.40;;;9.80;99.90;;;;;;4869142;29;20049;-77
2023/02/22 11:07:22;;;;;;;4.90;3.45;;;9.80;99.90;;;;;;4894256;29;20063;-77
2023/02/22 11:09:50;;;;;;;5.13;3.78;;;9.80;99.90;;;;;;4886045;29;20100;-77
2023/02/22 11:12:26;;;;;;;5.60;3.92;;;9.80;99.90;;;;;;4887333;29;20037;-76
2023/02/22 11:14:51;;;;;;;5.07;3.30;;;9.90;99.90;;;;;;4885843;29;20029;-77
2023/02/22 11:17:29;;;;;;;5.68;3.80;;;9.90;99.90;;;;;;4886427;29;20452;-77
2023/02/22 11:19:56;;;;;;;4.65;3.28;;;9.90;99.90;;;;;;4904541;29;20052;-77
2023/02/22 11:22:28;;;;;;;4.38;3.00;;;9.90;99.90;;;;;;4887495;29;20033;-77
2023/02/22 11:25:00;;;;;;;5.57;3.53;;;9.90;99.90;;;;;;4904504;29;20025;-77
2023/02/22 11:27:32;;;;;;;5.68;4.00;;;10.00;99.90;;;;;;4887625;29;20044;-76
2023/02/22 11:30:07;;;;;;;4.53;3.05;;;9.90;99.90;;;;;;4904330;29;20529;-77
2023/02/22 11:32:35;;;;;;;6.47;4.30;;;10.00;99.90;;;;;;4903793;29;20069;-77
2023/02/22 11:35:27;;;;;;;6.00;4.25;;;10.00;99.90;;;;;;4904081;29;20072;-77
2023/02/22 11:38:08;;;;;;;6.85;4.70;;;9.90;99.90;;;;;;4863614;29;20045;-77
2023/02/22 11:40:34;;;;;;;6.65;3.80;;;9.90;99.90;;;;;;4885351;29;20053;-77
2023/02/22 11:43:15;;;;;;;6.35;4.47;;;9.90;99.90;;;;;;4889530;29;20089;-77
2023/02/22 11:46:21;;;;;;;6.22;4.05;;;10.00;99.90;;;;;;4887017;29;20111;-77
2023/02/22 11:49:03;;;;;;;6.60;4.00;;;10.10;99.90;;;;;;4880339;29;20546;-77
2023/02/22 11:52:02;;;;;;;5.50;3.85;;;10.10;99.90;;;;;;4868141;29;20037;-77
2023/02/22 11:54:36;;;;;;;7.10;4.32;;;10.10;99.90;;;;;;4884883;29;20037;-77
2023/02/22 11:57:20;;;;;;;6.80;4.47;;;10.10;99.90;;;;;;4880289;29;20130;-76
2023/02/22 12:00:23;;;;;;;6.00;4.43;;;10.10;99.90;;;;;;4903672;29;20405;-77
2023/02/22 12:03:06;;;;;;;6.10;4.40;;;10.10;99.90;;;;;;4886520;29;20117;-77
2023/02/22 12:05:58;;;;;;;;;;;10.10;99.90;;;;;;4904031;29;20498;-77
2023/02/22 12:08:23;;;;;;;4.85;3.58;;;10.10;99.90;;;;;;4888766;29;19908;-77
2023/02/22 12:11:29;;;;;;;5.38;3.47;;;10.10;99.90;;;;;;4886248;29;20074;-77
2023/02/22 12:14:24;;;;;;;5.35;2.83;;;10.10;99.90;;;;;;4863090;29;20502;-77
2023/02/22 12:17:24;;;;;;;3.45;2.30;;;10.30;99.90;;;;;;4884489;29;20028;-77
2023/02/22 12:19:54;;;;;;;4.15;2.05;;;10.40;99.90;;;;;;4884740;29;20504;-77
2023/02/22 12:22:29;;;;;;;2.83;2.17;;;10.50;99.90;;;;;;4884544;29;20064;-77
2023/02/22 12:25:15;;;;;;;2.22;1.50;;;10.60;99.90;;;;;;4868079;29;20072;-77
2023/02/22 12:27:53;;;;;;;2.40;1.50;;;10.60;99.90;;;;;;4884591;29;20029;-77
2023/02/22 12:30:41;;;;;;;1.90;1.00;;;10.80;99.90;;;;;;4884448;29;20035;-77
2023/02/22 12:33:23;;;;;;;0.70;0.60;;;10.70;99.90;;;;;;4884240;29;20033;-77
2023/02/22 12:35:52;;;;;;;1.10;0.75;;;10.70;99.90;;;;;;4888237;29;20039;-77
2023/02/22 12:38:57;;;;;;;0.70;0.63;;;10.60;99.90;;;;;;4879158;29;20112;-77
2023/02/22 12:41:44;;;;;;;1.00;0.60;;;10.60;99.90;;;;;;4827034;29;20073;-77
2023/02/22 12:44:19;;;;;;;1.08;0.50;;;10.60;99.90;;;;;;4895233;29;20124;-78
2023/02/22 12:46:57;;;;;;;0.85;0.60;;;10.60;99.90;;;;;;4902699;29;20108;-77
2023/02/22 12:49:38;;;;;;;0.45;0.30;;;10.60;99.90;;;;;;4886261;29;20118;-78
2023/02/22 12:52:33;;;;;;;1.02;0.38;;;10.50;99.90;;;;;;4902569;29;20025;-77
2023/02/22 12:55:16;;;;;;;0.77;0.45;;;10.60;99.90;;;;;;4902591;29;20037;-78
2023/02/22 12:58:12;;;;;;;1.05;0.50;;;10.60;99.90;;;;;;4902765;29;20017;-78
2023/02/22 13:00:50;;;;;;;0.77;0.32;;;10.60;99.90;;;;;;4886393;29;20032;-78
2023/02/22 13:03:25;;;;;;;0.73;0.30;;;10.60;99.90;;;;;;4902228;29;20049;-78
2023/02/22 13:06:01;;;;;;;1.17;0.40;;;10.60;99.90;;;;;;4886054;29;20032;-78
2023/02/22 13:08:30;;;;;;;1.00;0.30;;;10.50;99.90;;;;;;4888292;29;20029;-78